createdAt,value
2024-04-10T00:01:35.242Z,15.90
2024-04-10T00:04:02.477Z,15.92
2024-04-10T00:06:32.217Z,15.92
2024-04-10T00:08:59.402Z,15.90
2024-04-10T00:11:29.175Z,15.90
2024-04-10T00:13:56.522Z,15.90
2024-04-10T00:16:28.794Z,15.86
2024-04-10T00:18:56.244Z,15.87
2024-04-10T00:21:26.405Z,15.89
2024-04-10T00:23:53.477Z,15.88
2024-04-10T00:26:23.210Z,15.88
2024-04-10T00:28:50.317Z,15.87
2024-04-10T00:31:20.478Z,15.86
2024-04-10T00:33:50.266Z,15.86
2024-04-10T00:36:19.973Z,15.86
2024-04-10T00:38:47.052Z,15.85
2024-04-10T00:41:16.781Z,15.85
2024-04-10T00:43:43.878Z,15.84
2024-04-10T00:46:15.577Z,15.83
2024-04-10T00:48:43.137Z,15.84
2024-04-10T00:51:16.712Z,15.82
2024-04-10T00:53:43.809Z,15.82
2024-04-10T00:56:13.482Z,15.82
2024-04-10T00:58:40.845Z,15.82
2024-04-10T01:01:10.632Z,15.80
2024-04-10T01:03:38.556Z,15.78
2024-04-10T01:06:09.091Z,15.80
2024-04-10T01:08:39.384Z,15.78
2024-04-10T01:11:10.142Z,15.79
2024-04-10T01:13:37.318Z,15.80
2024-04-10T01:16:07.629Z,15.75
2024-04-10T01:18:34.739Z,15.77
2024-04-10T01:21:04.419Z,15.76
2024-04-10T01:23:34.106Z,15.76
2024-04-10T01:26:03.975Z,15.76
2024-04-10T01:28:31.161Z,15.76
2024-04-10T01:31:00.902Z,15.74
2024-04-10T01:33:28.484Z,15.72
2024-04-10T01:35:58.357Z,15.76
2024-04-10T01:38:25.617Z,15.74
2024-04-10T01:40:58.062Z,15.71
2024-04-10T01:43:25.225Z,15.72
2024-04-10T01:45:54.879Z,15.73
2024-04-10T01:48:22.166Z,15.73
2024-04-10T01:50:51.906Z,15.72
2024-04-10T01:53:19.178Z,15.72
2024-04-10T01:55:48.994Z,15.72
2024-04-10T01:58:18.722Z,15.71
2024-04-10T02:00:48.401Z,15.71
2024-04-10T02:03:15.517Z,15.68
2024-04-10T02:05:45.218Z,15.68
2024-04-10T02:08:12.320Z,15.69
2024-04-10T02:10:42.047Z,15.69
2024-04-10T02:13:09.172Z,15.67
2024-04-10T02:15:41.418Z,15.66
2024-04-10T02:18:08.680Z,15.62
2024-04-10T02:20:38.718Z,15.66
2024-04-10T02:23:05.948Z,15.67
2024-04-10T02:25:36.346Z,15.67
2024-04-10T02:28:03.520Z,15.66
2024-04-10T02:30:33.170Z,15.66
2024-04-10T02:33:02.956Z,15.66
2024-04-10T02:35:32.936Z,15.64
2024-04-10T02:38:00.163Z,15.64
2024-04-10T02:40:31.075Z,15.64
2024-04-10T02:43:05.526Z,15.62
2024-04-10T02:45:35.457Z,15.62
2024-04-10T02:48:05.726Z,15.60
2024-04-10T02:50:35.556Z,15.62
2024-04-10T02:53:02.820Z,15.60
2024-04-10T02:55:32.549Z,15.59
2024-04-10T02:57:59.611Z,15.59
2024-04-10T03:00:29.274Z,15.58
2024-04-10T03:02:56.420Z,15.57
2024-04-10T03:05:28.948Z,15.59
2024-04-10T03:07:56.153Z,15.58
2024-04-10T03:10:25.822Z,15.58
2024-04-10T03:12:52.938Z,15.56
2024-04-10T03:15:22.590Z,15.58
2024-04-10T03:17:49.754Z,15.55
2024-04-10T03:20:19.639Z,15.57
2024-04-10T03:22:50.416Z,15.55
2024-04-10T03:25:21.041Z,15.53
2024-04-10T03:27:48.127Z,15.52
2024-04-10T03:30:17.794Z,15.51
2024-04-10T03:32:44.994Z,15.51
2024-04-10T03:35:15.145Z,15.51
2024-04-10T03:37:42.358Z,15.50
2024-04-10T03:40:14.780Z,15.52
2024-04-10T03:42:44.636Z,15.50
2024-04-10T03:45:16.114Z,15.49
2024-04-10T03:47:46.308Z,15.50
2024-04-10T03:50:19.035Z,15.48
2024-04-10T03:52:49.297Z,15.48
2024-04-10T03:55:19.134Z,15.47
2024-04-10T03:57:48.804Z,15.45
2024-04-10T04:00:16.136Z,15.40
2024-04-10T04:02:45.949Z,15.46
2024-04-10T04:05:13.141Z,15.45
2024-04-10T04:07:42.810Z,15.45
2024-04-10T04:10:09.934Z,15.44
2024-04-10T04:12:42.232Z,15.44
2024-04-10T04:15:09.352Z,15.44
2024-04-10T04:17:39.270Z,15.39
2024-04-10T04:20:08.641Z,15.42
2024-04-10T04:22:38.376Z,15.42
2024-04-10T04:25:06.946Z,15.41
2024-04-10T04:27:36.748Z,15.41
2024-04-10T04:30:08.901Z,15.41
2024-04-10T04:32:38.726Z,15.41
2024-04-10T04:35:06.551Z,15.33
2024-04-10T04:37:36.599Z,15.41
2024-04-10T04:40:07.462Z,15.39
2024-04-10T04:42:38.021Z,15.39
2024-04-10T04:45:08.586Z,15.38
2024-04-10T04:47:38.513Z,15.39
2024-04-10T04:50:09.654Z,15.38
2024-04-10T04:52:39.401Z,15.33
2024-04-10T04:55:09.673Z,15.37
2024-04-10T04:57:36.796Z,15.36
2024-04-10T05:00:13.118Z,15.37
2024-04-10T05:02:43.114Z,15.34
2024-04-10T05:05:16.898Z,15.35
2024-04-10T05:07:47.436Z,15.26
2024-04-10T05:10:17.311Z,15.36
2024-04-10T05:12:44.543Z,15.35
2024-04-10T05:15:14.853Z,15.34
2024-04-10T05:17:50.300Z,15.34
2024-04-10T05:20:18.920Z,15.35
2024-04-10T05:22:49.150Z,15.32
2024-04-10T05:25:16.384Z,15.35
2024-04-10T05:27:46.576Z,15.34
2024-04-10T05:30:13.804Z,15.33
2024-04-10T05:32:44.672Z,15.33
2024-04-10T05:35:15.408Z,15.33
2024-04-10T05:37:45.537Z,15.32
2024-04-10T05:40:15.102Z,15.32
2024-04-10T05:42:45.575Z,15.30
2024-04-10T05:45:13.652Z,15.30
2024-04-10T05:47:44.647Z,15.29
2024-04-10T05:50:14.513Z,15.28
2024-04-10T05:52:44.556Z,15.28
2024-04-10T05:55:11.959Z,15.29
2024-04-10T05:57:41.675Z,15.26
2024-04-10T06:00:11.141Z,15.28
2024-04-10T06:02:41.466Z,15.28
2024-04-10T06:05:09.990Z,15.28
2024-04-10T06:07:43.750Z,15.27
2024-04-10T06:10:12.405Z,15.26
2024-04-10T06:12:42.131Z,15.26
2024-04-10T06:15:09.263Z,15.26
2024-04-10T06:17:39.257Z,15.25
2024-04-10T06:20:11.200Z,15.26
2024-04-10T06:22:43.756Z,15.26
2024-04-10T06:25:10.872Z,15.26
2024-04-10T06:27:40.541Z,15.25
2024-04-10T06:30:10.586Z,15.25
2024-04-10T06:32:40.564Z,15.25
2024-04-10T06:35:08.928Z,15.25
2024-04-10T06:37:38.705Z,15.25
2024-04-10T06:40:09.688Z,15.24
2024-04-10T06:42:39.390Z,15.25
2024-04-10T06:45:06.908Z,15.26
2024-04-10T06:47:38.882Z,15.23
2024-04-10T06:50:08.119Z,15.20
2024-04-10T06:52:37.839Z,15.23
2024-04-10T06:55:06.728Z,15.23
2024-04-10T06:57:39.083Z,15.24
2024-04-10T07:00:14.262Z,15.22
2024-04-10T07:02:44.380Z,15.18
2024-04-10T07:05:11.613Z,15.22
2024-04-10T07:07:41.803Z,15.21
2024-04-10T07:10:10.433Z,15.21
2024-04-10T07:12:42.730Z,15.18
2024-04-10T07:15:09.796Z,15.21
2024-04-10T07:17:39.658Z,15.21
2024-04-10T07:20:07.648Z,15.20
2024-04-10T07:22:37.408Z,15.20
2024-04-10T07:25:05.216Z,15.19
2024-04-10T07:27:34.891Z,15.16
2024-04-10T07:30:05.335Z,15.18
2024-04-10T07:32:35.209Z,15.18
2024-04-10T07:35:02.603Z,15.17
2024-04-10T07:37:32.559Z,15.15
2024-04-10T07:40:01.864Z,15.13
2024-04-10T07:42:32.255Z,15.17
2024-04-10T07:44:59.371Z,15.18
2024-04-10T07:47:31.813Z,15.17
2024-04-10T07:49:59.562Z,15.17
2024-04-10T07:52:29.271Z,15.18
2024-04-10T07:54:56.446Z,15.17
2024-04-10T07:57:26.163Z,15.17
2024-04-10T07:59:53.236Z,15.15
2024-04-10T08:02:24.365Z,15.13
2024-04-10T08:04:54.671Z,15.16
2024-04-10T08:07:24.504Z,15.13
2024-04-10T08:09:52.116Z,15.15
2024-04-10T08:12:21.948Z,15.17
2024-04-10T08:14:52.052Z,15.16
2024-04-10T08:17:21.770Z,15.15
2024-04-10T08:19:48.999Z,15.14
2024-04-10T08:22:21.283Z,15.13
2024-04-10T08:24:48.377Z,15.14
2024-04-10T08:27:18.066Z,15.12
2024-04-10T08:29:48.482Z,15.14
2024-04-10T08:32:18.301Z,15.13
2024-04-10T08:34:45.597Z,15.13
2024-04-10T08:37:15.393Z,15.11
2024-04-10T08:39:48.758Z,15.12
2024-04-10T08:42:19.367Z,15.12
2024-04-10T08:44:46.616Z,15.12
2024-04-10T08:47:16.449Z,15.11
2024-04-10T08:49:43.886Z,14.76
2024-04-10T08:52:13.642Z,15.11
2024-04-10T08:54:40.718Z,15.11
2024-04-10T08:57:13.011Z,15.12
2024-04-10T08:59:40.102Z,15.11
2024-04-10T09:02:09.790Z,15.12
2024-04-10T09:04:43.539Z,15.11
2024-04-10T09:07:13.340Z,15.12
2024-04-10T09:09:40.583Z,15.12
2024-04-10T09:12:12.990Z,15.12
2024-04-10T09:14:40.596Z,15.12
2024-04-10T09:17:11.026Z,15.12
2024-04-10T09:19:38.242Z,15.15
2024-04-10T09:22:08.101Z,15.16
2024-04-10T09:24:35.596Z,15.17
2024-04-10T09:27:15.104Z,15.18
2024-04-10T09:29:42.209Z,15.21
2024-04-10T09:32:12.680Z,15.24
2024-04-10T09:34:40.766Z,15.28
2024-04-10T09:37:10.780Z,15.17
2024-04-10T09:39:38.440Z,15.33
2024-04-10T09:42:12.405Z,15.30
2024-04-10T09:44:42.158Z,15.34
2024-04-10T09:47:11.959Z,15.37
2024-04-10T09:49:43.559Z,15.37
2024-04-10T09:52:13.785Z,15.40
2024-04-10T09:54:41.063Z,15.41
2024-04-10T09:57:12.025Z,15.42
2024-04-10T09:59:44.644Z,15.42
2024-04-10T10:02:19.987Z,15.40
2024-04-10T10:04:47.471Z,15.40
2024-04-10T10:07:23.635Z,15.43
2024-04-10T10:09:51.386Z,15.43
2024-04-10T10:12:28.347Z,15.44
2024-04-10T10:15:06.852Z,15.45
2024-04-10T10:17:49.854Z,15.47
2024-04-10T10:20:23.751Z,15.48
2024-04-10T10:23:03.324Z,15.50
2024-04-10T10:26:45.272Z,15.51
2024-04-10T10:29:15.858Z,15.52
2024-04-10T10:31:47.300Z,15.52
2024-04-10T10:34:15.871Z,15.53
2024-04-10T10:36:47.359Z,15.53
2024-04-10T10:39:16.008Z,15.54
2024-04-10T10:41:48.563Z,15.54
2024-04-10T10:44:21.376Z,15.54
2024-04-10T10:46:51.721Z,15.55
2024-04-10T10:49:21.529Z,15.55
2024-04-10T10:51:48.753Z,15.55
2024-04-10T10:54:19.230Z,15.56
2024-04-10T10:56:49.000Z,15.57
2024-04-10T10:59:18.735Z,15.57
2024-04-10T11:01:45.884Z,15.53
2024-04-10T11:04:17.759Z,15.57
2024-04-10T11:06:45.722Z,15.59
2024-04-10T11:09:17.037Z,15.58
2024-04-10T11:11:45.133Z,15.56
2024-04-10T11:14:17.805Z,15.57
2024-04-10T11:16:45.248Z,15.58
2024-04-10T11:19:15.029Z,15.58
2024-04-10T11:21:42.101Z,15.57
2024-04-10T11:24:11.868Z,15.57
2024-04-10T11:26:39.020Z,15.57
2024-04-10T11:29:10.291Z,15.57
2024-04-10T11:31:43.150Z,15.57
2024-04-10T11:34:15.277Z,15.56
2024-04-10T11:36:42.802Z,15.56
2024-04-10T11:39:13.076Z,15.56
2024-04-10T11:41:40.522Z,15.56
2024-04-10T11:44:10.469Z,15.56
2024-04-10T11:46:37.940Z,15.55
2024-04-10T11:49:10.483Z,15.56
2024-04-10T11:51:37.770Z,15.56
2024-04-10T11:54:07.782Z,15.56
2024-04-10T11:56:34.904Z,15.56
2024-04-10T11:59:04.590Z,15.55
2024-04-10T12:01:31.746Z,15.53
2024-04-10T12:04:01.737Z,15.54
2024-04-10T12:06:31.607Z,15.53
2024-04-10T12:09:01.582Z,15.21
2024-04-10T12:11:28.806Z,15.51
2024-04-10T12:13:58.668Z,15.51
2024-04-10T12:16:27.633Z,15.49
2024-04-10T12:18:57.517Z,15.50
2024-04-10T12:21:24.673Z,15.50
2024-04-10T12:23:57.179Z,15.49
2024-04-10T12:26:24.654Z,15.48
2024-04-10T12:28:54.407Z,15.50
2024-04-10T12:31:21.521Z,15.49
2024-04-10T12:33:52.867Z,15.49
2024-04-10T12:36:40.662Z,15.51
2024-04-10T12:39:13.047Z,15.52
2024-04-10T12:41:43.230Z,15.50
2024-04-10T12:44:16.509Z,15.50
2024-04-10T12:46:46.675Z,15.50
2024-04-10T12:49:13.782Z,15.48
2024-04-10T12:51:43.497Z,15.46
2024-04-10T12:54:13.203Z,15.47
2024-04-10T12:56:42.945Z,15.52
2024-04-10T12:59:10.193Z,15.52
2024-04-10T13:01:39.923Z,15.50
2024-04-10T13:04:07.126Z,15.50
2024-04-10T13:06:38.124Z,15.52
2024-04-10T13:09:05.495Z,15.51
2024-04-10T13:11:37.896Z,15.53
2024-04-10T13:14:05.213Z,15.51
2024-04-10T13:16:34.928Z,15.52
2024-04-10T13:19:04.819Z,15.52
2024-04-10T13:21:34.542Z,15.51
2024-04-10T13:24:01.834Z,15.50
2024-04-10T13:26:32.114Z,15.52
2024-04-10T13:29:01.881Z,15.53
2024-04-10T13:31:31.557Z,15.53
2024-04-10T13:34:00.275Z,15.53
2024-04-10T13:36:30.813Z,15.55
2024-04-10T13:38:58.462Z,15.53
2024-04-10T13:41:30.091Z,15.56
2024-04-10T13:43:58.151Z,15.57
2024-04-10T13:46:30.594Z,15.56
2024-04-10T13:48:57.785Z,15.59
2024-04-10T13:51:29.286Z,15.59
2024-04-10T13:53:56.844Z,15.61
2024-04-10T13:56:26.768Z,15.60
2024-04-10T13:58:53.905Z,15.62
2024-04-10T14:01:25.624Z,15.62
2024-04-10T14:03:56.888Z,15.64
2024-04-10T14:06:29.312Z,15.64
2024-04-10T14:08:57.512Z,15.63
2024-04-10T14:11:27.895Z,15.63
2024-04-10T14:13:55.734Z,15.62
2024-04-10T14:16:26.406Z,15.61
2024-04-10T14:18:56.948Z,15.62
2024-04-10T14:21:26.835Z,15.64
2024-04-10T14:23:55.280Z,15.62
2024-04-10T14:26:25.178Z,15.62
2024-04-10T14:28:52.339Z,15.62
2024-04-10T14:31:22.136Z,15.63
2024-04-10T14:33:49.419Z,15.63
2024-04-10T14:36:21.969Z,15.60
2024-04-10T14:38:49.146Z,15.62
2024-04-10T14:41:18.944Z,15.62
2024-04-10T14:43:46.476Z,15.60
2024-04-10T14:46:22.057Z,15.59
2024-04-10T14:48:49.597Z,15.60
2024-04-10T14:51:22.827Z,15.60
2024-04-10T14:53:53.448Z,15.61
2024-04-10T14:56:24.120Z,15.60
2024-04-10T14:58:53.939Z,15.59
2024-04-10T15:01:22.894Z,15.59
2024-04-10T15:03:54.192Z,15.60
2024-04-10T15:06:24.184Z,15.59
2024-04-10T15:08:54.312Z,15.59
2024-04-10T15:11:22.241Z,15.56
2024-04-10T15:13:52.021Z,15.58
2024-04-10T15:16:19.404Z,15.51
2024-04-10T15:18:49.584Z,15.59
2024-04-10T15:21:16.944Z,15.59
2024-04-10T15:23:49.251Z,15.60
2024-04-10T15:26:16.400Z,15.60
2024-04-10T15:28:46.799Z,15.57
2024-04-10T15:31:13.901Z,15.61
2024-04-10T15:33:44.268Z,15.58
2024-04-10T15:36:12.611Z,15.59
2024-04-10T15:38:43.555Z,15.60
2024-04-10T15:41:14.042Z,15.56
2024-04-10T15:43:44.192Z,15.59
2024-04-10T15:46:11.780Z,15.60
2024-04-10T15:48:41.570Z,15.60
2024-04-10T15:51:11.565Z,15.60
2024-04-10T15:53:42.077Z,15.57
2024-04-10T15:56:10.487Z,15.57
2024-04-10T15:58:44.495Z,15.58
2024-04-10T16:01:12.256Z,15.55
2024-04-10T16:03:43.108Z,15.54
2024-04-10T16:06:11.059Z,15.55
2024-04-10T16:08:41.155Z,15.56
2024-04-10T16:11:12.336Z,15.57
2024-04-10T16:13:44.828Z,15.56
2024-04-10T16:16:12.104Z,15.44
2024-04-10T16:18:43.345Z,15.56
2024-04-10T16:21:11.108Z,15.56
2024-04-10T16:23:42.417Z,15.57
2024-04-10T16:26:10.208Z,15.55
2024-04-10T16:28:39.876Z,15.56
2024-04-10T16:31:11.307Z,15.55
2024-04-10T16:33:41.199Z,15.55
2024-04-10T16:36:09.716Z,15.52
2024-04-10T16:38:39.738Z,15.52
2024-04-10T16:41:07.030Z,15.53
2024-04-10T16:43:38.224Z,15.51
2024-04-10T16:46:07.124Z,15.53
2024-04-10T16:48:40.394Z,15.54
2024-04-10T16:51:08.351Z,15.52
2024-04-10T16:53:38.406Z,15.50
2024-04-10T16:56:07.567Z,15.53
2024-04-10T16:58:37.404Z,15.51
2024-04-10T17:01:07.907Z,15.53
2024-04-10T17:03:42.331Z,15.51
2024-04-10T17:06:09.608Z,15.52
2024-04-10T17:08:39.560Z,15.52
2024-04-10T17:11:13.676Z,15.52
2024-04-10T17:13:43.643Z,15.52
2024-04-10T17:16:11.366Z,15.53
2024-04-10T17:19:00.757Z,15.51
2024-04-10T17:21:49.957Z,15.50
2024-04-10T17:24:19.994Z,15.51
2024-04-10T17:26:49.771Z,15.52
2024-04-10T17:29:22.809Z,15.52
2024-04-10T17:31:54.408Z,15.50
2024-04-10T17:34:24.358Z,15.50
2024-04-10T17:36:54.207Z,15.50
2024-04-10T17:39:24.930Z,15.50
2024-04-10T17:41:54.767Z,15.46
2024-04-10T17:44:21.937Z,15.48
2024-04-10T17:46:51.695Z,15.48
2024-04-10T17:49:18.993Z,15.49
2024-04-10T17:51:51.311Z,15.46
2024-04-10T17:54:18.625Z,15.48
2024-04-10T17:56:48.311Z,15.48
2024-04-10T17:59:15.399Z,15.49
2024-04-10T18:01:45.109Z,15.47
2024-04-10T18:04:12.620Z,15.46
2024-04-10T18:06:42.487Z,15.46
2024-04-10T18:09:12.178Z,15.46
2024-04-10T18:11:42.185Z,15.47
2024-04-10T18:14:09.324Z,15.45
2024-04-10T18:16:39.019Z,15.43
2024-04-10T18:19:07.783Z,15.42
2024-04-10T18:21:37.774Z,15.44
2024-04-10T18:24:06.140Z,15.44
2024-04-10T18:26:38.574Z,15.43
2024-04-10T18:29:09.111Z,15.43
2024-04-10T18:31:38.828Z,15.43
2024-04-10T18:34:06.130Z,15.43
2024-04-10T18:36:35.906Z,15.42
2024-04-10T18:39:04.225Z,15.42
2024-04-10T18:41:34.909Z,15.41
2024-04-10T18:44:04.938Z,15.39
2024-04-10T18:46:34.587Z,15.40
2024-04-10T18:49:01.964Z,15.40
2024-04-10T18:51:31.766Z,15.39
2024-04-10T18:53:59.839Z,15.40
2024-04-10T18:56:29.747Z,15.38
2024-04-10T18:58:56.880Z,15.39
2024-04-10T19:01:29.175Z,15.39
2024-04-10T19:03:56.478Z,15.37
2024-04-10T19:06:27.162Z,15.38
2024-04-10T19:08:54.333Z,15.38
2024-04-10T19:11:24.201Z,15.38
2024-04-10T19:13:51.314Z,15.37
2024-04-10T19:16:20.995Z,15.37
2024-04-10T19:18:53.042Z,15.35
2024-04-10T19:21:23.071Z,15.35
2024-04-10T19:23:50.248Z,15.30
2024-04-10T19:26:20.009Z,15.35
2024-04-10T19:28:47.185Z,15.35
2024-04-10T19:31:16.873Z,15.34
2024-04-10T19:33:44.333Z,15.34
2024-04-10T19:36:18.379Z,15.33
2024-04-10T19:38:45.608Z,15.27
2024-04-10T19:41:17.001Z,15.30
2024-04-10T19:43:46.506Z,15.29
2024-04-10T19:46:16.433Z,15.29
2024-04-10T19:48:43.913Z,15.29
2024-04-10T19:51:16.453Z,15.29
2024-04-10T19:53:43.738Z,15.29
2024-04-10T19:56:13.771Z,15.28
2024-04-10T19:58:41.752Z,15.27
2024-04-10T20:01:12.422Z,15.24
2024-04-10T20:03:41.155Z,15.26
2024-04-10T20:06:11.699Z,15.26
2024-04-10T20:08:42.274Z,15.25
2024-04-10T20:11:12.511Z,15.25
2024-04-10T20:13:39.762Z,15.26
2024-04-10T20:16:11.372Z,15.25
2024-04-10T20:18:39.732Z,15.22
2024-04-10T20:21:10.564Z,15.23
2024-04-10T20:23:38.222Z,15.23
2024-04-10T20:26:11.140Z,15.22
2024-04-10T20:28:38.484Z,15.22
2024-04-10T20:31:08.772Z,15.22
2024-04-10T20:33:37.067Z,15.18
2024-04-10T20:36:07.970Z,15.22
2024-04-10T20:38:35.425Z,15.21
2024-04-10T20:41:06.886Z,15.20
2024-04-10T20:43:36.688Z,15.20
2024-04-10T20:46:07.273Z,15.19
2024-04-10T20:48:35.189Z,15.19
2024-04-10T20:51:09.615Z,15.19
2024-04-10T20:53:36.897Z,15.18
2024-04-10T20:56:07.502Z,15.18
2024-04-10T20:58:37.759Z,15.18
2024-04-10T21:01:08.242Z,15.17
2024-04-10T21:03:35.937Z,15.16
2024-04-10T21:06:03.187Z,15.15
2024-04-10T21:08:49.182Z,15.15
2024-04-10T21:11:35.629Z,15.17
2024-04-10T21:14:23.808Z,15.16
2024-04-10T21:17:09.514Z,15.14
2024-04-10T21:19:55.066Z,15.11
2024-04-10T21:22:40.773Z,15.13
2024-04-10T21:25:27.244Z,15.13
2024-04-10T21:28:15.063Z,15.09
2024-04-10T21:31:03.313Z,15.13
2024-04-10T21:33:49.558Z,15.11
2024-04-10T21:36:35.554Z,15.12
2024-04-10T21:39:20.910Z,15.11
2024-04-10T21:42:06.921Z,15.11
2024-04-10T21:44:52.852Z,15.10
2024-04-10T21:47:41.163Z,15.10
2024-04-10T21:50:27.163Z,15.10
2024-04-10T21:53:12.780Z,15.08
2024-04-10T21:55:58.462Z,15.07
2024-04-10T21:58:44.165Z,15.09
2024-04-10T22:01:32.177Z,15.06
2024-04-10T22:04:21.919Z,15.08
2024-04-10T22:07:07.749Z,15.05
2024-04-10T22:09:34.843Z,15.07
2024-04-10T22:12:07.017Z,15.08
2024-04-10T22:14:37.046Z,15.07
2024-04-10T22:17:22.710Z,15.06
2024-04-10T22:20:11.071Z,15.06
2024-04-10T22:22:56.983Z,15.06
2024-04-10T22:25:26.670Z,15.03
2024-04-10T22:27:56.315Z,15.05
2024-04-10T22:30:25.989Z,15.02
2024-04-10T22:32:55.745Z,15.03
2024-04-10T22:35:25.595Z,15.03
2024-04-10T22:37:55.688Z,15.03
2024-04-10T22:40:22.899Z,15.03
2024-04-10T22:42:52.555Z,15.04
2024-04-10T22:45:19.612Z,15.03
2024-04-10T22:47:48.301Z,15.03
2024-04-10T22:50:18.167Z,15.02
2024-04-10T22:52:50.326Z,15.00
2024-04-10T22:55:21.061Z,14.98
2024-04-10T22:57:48.181Z,15.01
2024-04-10T23:00:18.230Z,15.00
2024-04-10T23:02:46.509Z,14.99
2024-04-10T23:05:30.836Z,15.01
2024-04-10T23:08:27.664Z,14.99
2024-04-10T23:10:56.277Z,14.99
2024-04-10T23:13:23.383Z,14.98
2024-04-10T23:15:53.159Z,14.98
2024-04-10T23:18:31.358Z,14.94
2024-04-10T23:21:10.311Z,14.97
2024-04-10T23:23:40.605Z,14.94
2024-04-10T23:26:10.982Z,14.96
2024-04-10T23:28:39.208Z,14.86
2024-04-10T23:31:09.613Z,14.95
2024-04-10T23:33:37.314Z,14.88
2024-04-10T23:36:08.175Z,14.95
2024-04-10T23:38:36.763Z,14.95
2024-04-10T23:41:09.634Z,14.94
2024-04-10T23:43:37.107Z,14.94
2024-04-10T23:46:07.820Z,14.91
2024-04-10T23:48:35.788Z,14.94
2024-04-10T23:51:05.832Z,14.93
2024-04-10T23:53:33.517Z,14.92
2024-04-10T23:56:03.532Z,14.92
2024-04-10T23:58:33.853Z,14.91
